createdAt,value
2022-08-04T00:14:03.652Z,14.907
2022-08-04T00:29:06.121Z,14.544
2022-08-04T00:44:08.350Z,13.394
2022-08-04T00:59:10.561Z,14.138
2022-08-04T01:14:12.986Z,12.487
2022-08-04T01:29:16.047Z,13.283
2022-08-04T01:44:18.433Z,14.701
2022-08-04T01:59:20.643Z,16.473
2022-08-04T02:14:22.930Z,16.262
2022-08-04T02:29:27.316Z,16.921
2022-08-04T02:44:32.779Z,18.618
2022-08-04T02:59:35.033Z,18.822
2022-08-04T03:14:37.258Z,19.842
2022-08-04T03:29:39.456Z,22.494
2022-08-04T03:44:41.657Z,23.335
2022-08-04T03:59:48.854Z,24.571
2022-08-04T04:14:51.459Z,25.837
2022-08-04T04:29:53.668Z,28.386
2022-08-04T04:44:55.955Z,31.961
2022-08-04T04:59:58.128Z,34.964
2022-08-04T05:15:00.329Z,33.362
2022-08-04T05:30:02.583Z,35.916
2022-08-04T05:45:04.826Z,35.109
2022-08-04T06:00:19.876Z,32.722
2022-08-04T06:15:46.130Z,38.637
2022-08-04T06:30:48.727Z,41.692
2022-08-04T06:45:50.969Z,38.713
2022-08-04T07:00:53.161Z,47.169
2022-08-04T07:15:55.375Z,38.37
2022-08-04T07:30:57.604Z,39.584
2022-08-04T07:45:59.835Z,40.341
2022-08-04T08:01:02.071Z,40.861
2022-08-04T08:16:05.227Z,40.721
2022-08-04T08:31:07.455Z,43.64
2022-08-04T08:46:09.631Z,49.794
2022-08-04T09:01:11.974Z,45.604
2022-08-04T09:16:14.432Z,52.238
2022-08-04T09:31:16.813Z,45.945
2022-08-04T09:46:19.082Z,55.012
2022-08-04T10:01:23.590Z,46.29
2022-08-04T10:16:26.307Z,45.861
2022-08-04T10:31:28.596Z,50.863
2022-08-04T10:46:30.957Z,48.866
2022-08-04T11:02:01.826Z,47.052
2022-08-04T11:17:05.605Z,48.44
2022-08-04T11:32:07.778Z,45.426
2022-08-04T11:47:09.966Z,48.17
2022-08-04T12:02:12.234Z,50.206
2022-08-04T12:17:14.573Z,48.989
2022-08-04T12:32:18.310Z,48.724
2022-08-04T12:47:27.588Z,52.861
2022-08-04T13:02:39.229Z,58.871
2022-08-04T13:17:41.475Z,56.535
2022-08-04T13:32:43.765Z,59.277
2022-08-04T13:47:45.963Z,59.159
2022-08-04T14:02:48.199Z,65.591
2022-08-04T14:17:50.581Z,60.646
2022-08-04T14:32:52.974Z,62.823
2022-08-04T14:47:58.791Z,66.971
2022-08-04T15:03:01.016Z,61.286
2022-08-04T15:18:03.185Z,63.922
2022-08-04T15:33:05.357Z,66.608
2022-08-04T15:48:07.550Z,63.324
2022-08-04T16:03:09.775Z,60.461
2022-08-04T16:18:25.592Z,61.542
2022-08-04T16:33:28.296Z,60.958
2022-08-04T16:48:46.607Z,59.609
2022-08-04T17:03:56.084Z,54.698
2022-08-04T17:19:00.154Z,51.05
2022-08-04T17:34:02.358Z,49.549
2022-08-04T17:49:04.742Z,49.512
2022-08-04T18:04:06.915Z,48.699
2022-08-04T18:19:09.930Z,46.822
2022-08-04T18:34:20.509Z,42.448
2022-08-04T18:50:58.737Z,41.85
2022-08-04T19:06:12.385Z,41.863
2022-08-04T19:21:14.741Z,41.61
2022-08-04T19:36:17.267Z,42.372
2022-08-04T19:51:19.708Z,42.614
2022-08-04T20:06:24.789Z,40.948
2022-08-04T20:21:54.016Z,40.089
2022-08-04T20:36:58.814Z,36.045
2022-08-04T20:52:04.885Z,35.903
2022-08-04T21:07:10.937Z,31.18
2022-08-04T21:22:29.778Z,28.571
2022-08-04T21:37:56.688Z,28.287
2022-08-04T21:53:01.016Z,26.868
2022-08-04T22:08:03.362Z,28.462
2022-08-04T22:23:06.389Z,23.205
2022-08-04T22:38:27.857Z,26.666
2022-08-04T22:53:39.713Z,25.898
2022-08-04T23:08:43.290Z,29.283
2022-08-04T23:24:00.701Z,33.582
2022-08-04T23:39:05.541Z,37.31
2022-08-04T23:54:08.139Z,37.421
